sensor_id;sensor_type;location;lat;lon;timestamp;P1;durP1;ratioP1;P2;durP2;ratioP2
2390;SDS011;22957;50.824;4.360;2023-05-29T00:00:04;13.53;;;5.83;;
2390;SDS011;22957;50.824;4.360;2023-05-29T00:02:33;9.30;;;5.40;;
2390;SDS011;22957;50.824;4.360;2023-05-29T00:04:59;12.07;;;5.80;;
2390;SDS011;22957;50.824;4.360;2023-05-29T00:07:28;9.27;;;5.30;;
2390;SDS011;22957;50.824;4.360;2023-05-29T00:09:54;18.87;;;6.27;;
2390;SDS011;22957;50.824;4.360;2023-05-29T00:12:20;6.70;;;5.17;;
2390;SDS011;22957;50.824;4.360;2023-05-29T00:14:46;12.13;;;5.70;;
2390;SDS011;22957;50.824;4.360;2023-05-29T00:17:13;13.47;;;5.57;;
2390;SDS011;22957;50.824;4.360;2023-05-29T00:19:40;12.53;;;5.83;;
2390;SDS011;22957;50.824;4.360;2023-05-29T00:22:07;14.80;;;6.70;;
2390;SDS011;22957;50.824;4.360;2023-05-29T00:24:33;14.90;;;6.40;;
2390;SDS011;22957;50.824;4.360;2023-05-29T00:26:58;12.83;;;5.70;;
2390;SDS011;22957;50.824;4.360;2023-05-29T00:29:24;14.70;;;6.00;;
2390;SDS011;22957;50.824;4.360;2023-05-29T00:31:49;14.73;;;6.57;;
2390;SDS011;22957;50.824;4.360;2023-05-29T00:34:18;14.10;;;6.90;;
2390;SDS011;22957;50.824;4.360;2023-05-29T00:36:48;14.00;;;6.20;;
2390;SDS011;22957;50.824;4.360;2023-05-29T00:39:13;15.23;;;6.73;;
2390;SDS011;22957;50.824;4.360;2023-05-29T00:41:39;12.00;;;6.10;;
2390;SDS011;22957;50.824;4.360;2023-05-29T00:44:04;8.93;;;6.70;;
2390;SDS011;22957;50.824;4.360;2023-05-29T00:46:31;12.33;;;6.37;;
2390;SDS011;22957;50.824;4.360;2023-05-29T00:49:01;11.50;;;6.30;;
2390;SDS011;22957;50.824;4.360;2023-05-29T00:51:27;10.83;;;6.50;;
2390;SDS011;22957;50.824;4.360;2023-05-29T00:53:54;10.30;;;5.90;;
2390;SDS011;22957;50.824;4.360;2023-05-29T00:56:20;17.30;;;7.40;;
2390;SDS011;22957;50.824;4.360;2023-05-29T00:58:47;13.20;;;7.53;;
2390;SDS011;22957;50.824;4.360;2023-05-29T01:01:15;12.77;;;6.40;;
2390;SDS011;22957;50.824;4.360;2023-05-29T01:03:42;16.27;;;6.93;;
2390;SDS011;22957;50.824;4.360;2023-05-29T01:06:08;20.13;;;7.90;;
2390;SDS011;22957;50.824;4.360;2023-05-29T01:08:35;11.40;;;6.17;;
2390;SDS011;22957;50.824;4.360;2023-05-29T01:11:05;13.43;;;6.00;;
2390;SDS011;22957;50.824;4.360;2023-05-29T01:13:38;11.63;;;6.43;;
2390;SDS011;22957;50.824;4.360;2023-05-29T01:16:12;13.97;;;5.70;;
2390;SDS011;22957;50.824;4.360;2023-05-29T01:24:13;11.07;;;5.63;;
2390;SDS011;22957;50.824;4.360;2023-05-29T01:27:07;15.93;;;6.67;;
2390;SDS011;22957;50.824;4.360;2023-05-29T01:29:38;17.80;;;6.50;;
2390;SDS011;22957;50.824;4.360;2023-05-29T01:32:07;10.47;;;6.00;;
2390;SDS011;22957;50.824;4.360;2023-05-29T01:34:34;22.93;;;6.27;;
2390;SDS011;22957;50.824;4.360;2023-05-29T01:36:59;17.50;;;7.00;;
2390;SDS011;22957;50.824;4.360;2023-05-29T01:39:25;15.10;;;6.40;;
2390;SDS011;22957;50.824;4.360;2023-05-29T01:41:51;9.90;;;6.40;;
2390;SDS011;22957;50.824;4.360;2023-05-29T01:44:18;14.60;;;6.83;;
2390;SDS011;22957;50.824;4.360;2023-05-29T01:46:45;14.10;;;7.33;;
2390;SDS011;22957;50.824;4.360;2023-05-29T01:49:11;12.40;;;5.60;;
2390;SDS011;22957;50.824;4.360;2023-05-29T01:51:40;16.83;;;6.20;;
2390;SDS011;22957;50.824;4.360;2023-05-29T01:54:06;10.57;;;5.83;;
2390;SDS011;22957;50.824;4.360;2023-05-29T01:56:32;13.83;;;7.40;;
2390;SDS011;22957;50.824;4.360;2023-05-29T01:58:58;13.17;;;7.20;;
2390;SDS011;22957;50.824;4.360;2023-05-29T02:01:26;11.53;;;6.27;;
2390;SDS011;22957;50.824;4.360;2023-05-29T02:03:52;15.80;;;6.50;;
2390;SDS011;22957;50.824;4.360;2023-05-29T02:06:18;18.83;;;6.80;;
2390;SDS011;22957;50.824;4.360;2023-05-29T02:08:44;11.57;;;6.20;;
2390;SDS011;22957;50.824;4.360;2023-05-29T02:11:09;11.43;;;6.57;;
2390;SDS011;22957;50.824;4.360;2023-05-29T02:13:35;16.37;;;6.10;;
2390;SDS011;22957;50.824;4.360;2023-05-29T02:16:00;10.93;;;6.50;;
2390;SDS011;22957;50.824;4.360;2023-05-29T02:18:26;15.37;;;7.37;;
2390;SDS011;22957;50.824;4.360;2023-05-29T02:20:51;10.50;;;6.00;;
2390;SDS011;22957;50.824;4.360;2023-05-29T02:23:17;14.43;;;5.13;;
2390;SDS011;22957;50.824;4.360;2023-05-29T02:25:44;10.80;;;6.40;;
2390;SDS011;22957;50.824;4.360;2023-05-29T02:28:11;11.33;;;6.70;;
2390;SDS011;22957;50.824;4.360;2023-05-29T02:30:36;20.97;;;6.40;;
2390;SDS011;22957;50.824;4.360;2023-05-29T02:33:02;10.27;;;6.23;;
2390;SDS011;22957;50.824;4.360;2023-05-29T02:35:27;10.60;;;5.73;;
2390;SDS011;22957;50.824;4.360;2023-05-29T02:37:53;16.53;;;7.10;;
2390;SDS011;22957;50.824;4.360;2023-05-29T02:40:19;12.57;;;6.10;;
2390;SDS011;22957;50.824;4.360;2023-05-29T02:42:45;14.50;;;5.40;;
2390;SDS011;22957;50.824;4.360;2023-05-29T02:45:11;18.00;;;6.37;;
2390;SDS011;22957;50.824;4.360;2023-05-29T02:47:37;12.53;;;5.00;;
2390;SDS011;22957;50.824;4.360;2023-05-29T02:50:03;14.13;;;5.27;;
2390;SDS011;22957;50.824;4.360;2023-05-29T02:52:30;12.10;;;4.47;;
2390;SDS011;22957;50.824;4.360;2023-05-29T02:54:56;12.10;;;5.10;;
2390;SDS011;22957;50.824;4.360;2023-05-29T02:57:23;9.83;;;3.80;;
2390;SDS011;22957;50.824;4.360;2023-05-29T02:59:49;15.33;;;4.93;;
2390;SDS011;22957;50.824;4.360;2023-05-29T03:02:16;16.57;;;5.23;;
2390;SDS011;22957;50.824;4.360;2023-05-29T03:04:42;9.50;;;3.23;;
2390;SDS011;22957;50.824;4.360;2023-05-29T03:07:09;10.17;;;3.80;;
2390;SDS011;22957;50.824;4.360;2023-05-29T03:09:34;11.00;;;3.40;;
2390;SDS011;22957;50.824;4.360;2023-05-29T03:12:00;11.50;;;4.00;;
2390;SDS011;22957;50.824;4.360;2023-05-29T03:14:26;10.97;;;3.87;;
2390;SDS011;22957;50.824;4.360;2023-05-29T03:16:52;12.87;;;4.07;;
2390;SDS011;22957;50.824;4.360;2023-05-29T03:19:18;18.00;;;4.70;;
2390;SDS011;22957;50.824;4.360;2023-05-29T03:21:44;14.03;;;3.80;;
2390;SDS011;22957;50.824;4.360;2023-05-29T03:24:10;15.17;;;4.33;;
2390;SDS011;22957;50.824;4.360;2023-05-29T03:26:36;14.57;;;4.17;;
2390;SDS011;22957;50.824;4.360;2023-05-29T03:29:01;11.60;;;3.47;;
2390;SDS011;22957;50.824;4.360;2023-05-29T03:31:27;12.83;;;3.30;;
2390;SDS011;22957;50.824;4.360;2023-05-29T03:33:53;9.13;;;3.30;;
2390;SDS011;22957;50.824;4.360;2023-05-29T03:36:18;10.53;;;2.47;;
2390;SDS011;22957;50.824;4.360;2023-05-29T03:38:44;9.10;;;2.83;;
2390;SDS011;22957;50.824;4.360;2023-05-29T03:41:09;17.33;;;3.20;;
2390;SDS011;22957;50.824;4.360;2023-05-29T03:43:35;17.33;;;3.57;;
2390;SDS011;22957;50.824;4.360;2023-05-29T03:46:01;19.33;;;4.03;;
2390;SDS011;22957;50.824;4.360;2023-05-29T03:48:28;9.80;;;2.90;;
2390;SDS011;22957;50.824;4.360;2023-05-29T03:50:53;14.13;;;3.10;;
2390;SDS011;22957;50.824;4.360;2023-05-29T03:53:19;13.60;;;3.03;;
2390;SDS011;22957;50.824;4.360;2023-05-29T03:55:44;10.10;;;2.40;;
2390;SDS011;22957;50.824;4.360;2023-05-29T03:58:10;8.10;;;3.00;;
2390;SDS011;22957;50.824;4.360;2023-05-29T04:00:37;8.87;;;2.30;;
2390;SDS011;22957;50.824;4.360;2023-05-29T04:03:03;9.80;;;2.00;;
2390;SDS011;22957;50.824;4.360;2023-05-29T04:05:29;15.93;;;3.07;;
2390;SDS011;22957;50.824;4.360;2023-05-29T04:07:55;11.57;;;1.93;;
2390;SDS011;22957;50.824;4.360;2023-05-29T04:10:20;6.27;;;2.10;;
2390;SDS011;22957;50.824;4.360;2023-05-29T04:12:46;7.73;;;2.00;;
2390;SDS011;22957;50.824;4.360;2023-05-29T04:15:11;15.60;;;2.77;;
2390;SDS011;22957;50.824;4.360;2023-05-29T04:17:37;13.67;;;2.77;;
2390;SDS011;22957;50.824;4.360;2023-05-29T04:20:02;14.13;;;2.80;;
2390;SDS011;22957;50.824;4.360;2023-05-29T04:22:33;16.23;;;3.17;;
2390;SDS011;22957;50.824;4.360;2023-05-29T04:25:03;22.37;;;1.90;;
2390;SDS011;22957;50.824;4.360;2023-05-29T04:27:30;10.73;;;2.50;;
2390;SDS011;22957;50.824;4.360;2023-05-29T04:29:57;7.43;;;2.23;;
2390;SDS011;22957;50.824;4.360;2023-05-29T04:32:23;10.53;;;1.80;;
2390;SDS011;22957;50.824;4.360;2023-05-29T04:34:48;10.13;;;2.00;;
2390;SDS011;22957;50.824;4.360;2023-05-29T04:37:16;11.07;;;2.10;;
2390;SDS011;22957;50.824;4.360;2023-05-29T04:39:42;12.70;;;2.47;;
2390;SDS011;22957;50.824;4.360;2023-05-29T04:42:07;15.00;;;3.03;;
2390;SDS011;22957;50.824;4.360;2023-05-29T04:44:33;6.90;;;2.00;;
2390;SDS011;22957;50.824;4.360;2023-05-29T04:46:59;14.77;;;2.40;;
2390;SDS011;22957;50.824;4.360;2023-05-29T04:49:27;10.40;;;2.50;;
2390;SDS011;22957;50.824;4.360;2023-05-29T04:51:53;11.90;;;2.07;;
2390;SDS011;22957;50.824;4.360;2023-05-29T04:54:19;8.93;;;2.97;;
2390;SDS011;22957;50.824;4.360;2023-05-29T04:56:47;17.67;;;2.73;;
2390;SDS011;22957;50.824;4.360;2023-05-29T04:59:12;14.07;;;2.23;;
2390;SDS011;22957;50.824;4.360;2023-05-29T05:01:38;12.73;;;2.30;;
2390;SDS011;22957;50.824;4.360;2023-05-29T05:04:04;19.30;;;2.93;;
2390;SDS011;22957;50.824;4.360;2023-05-29T05:06:30;7.30;;;2.07;;
2390;SDS011;22957;50.824;4.360;2023-05-29T05:08:55;12.50;;;2.40;;
2390;SDS011;22957;50.824;4.360;2023-05-29T05:11:21;10.33;;;1.53;;
2390;SDS011;22957;50.824;4.360;2023-05-29T05:13:48;7.03;;;1.87;;
2390;SDS011;22957;50.824;4.360;2023-05-29T05:16:14;8.60;;;1.60;;
2390;SDS011;22957;50.824;4.360;2023-05-29T05:18:41;17.37;;;2.30;;
2390;SDS011;22957;50.824;4.360;2023-05-29T05:21:08;13.87;;;2.43;;
2390;SDS011;22957;50.824;4.360;2023-05-29T05:23:35;15.57;;;2.03;;
2390;SDS011;22957;50.824;4.360;2023-05-29T05:26:01;10.03;;;2.47;;
2390;SDS011;22957;50.824;4.360;2023-05-29T05:28:26;12.47;;;2.60;;
2390;SDS011;22957;50.824;4.360;2023-05-29T05:30:52;22.13;;;3.27;;
2390;SDS011;22957;50.824;4.360;2023-05-29T05:33:17;9.77;;;1.93;;
2390;SDS011;22957;50.824;4.360;2023-05-29T05:35:43;10.93;;;2.30;;
2390;SDS011;22957;50.824;4.360;2023-05-29T05:38:08;11.90;;;2.30;;
2390;SDS011;22957;50.824;4.360;2023-05-29T05:40:34;5.77;;;1.60;;
2390;SDS011;22957;50.824;4.360;2023-05-29T05:42:59;7.43;;;1.97;;
2390;SDS011;22957;50.824;4.360;2023-05-29T05:45:25;10.87;;;2.77;;
2390;SDS011;22957;50.824;4.360;2023-05-29T05:47:50;18.10;;;2.83;;
2390;SDS011;22957;50.824;4.360;2023-05-29T05:50:16;7.70;;;2.00;;
2390;SDS011;22957;50.824;4.360;2023-05-29T05:52:42;18.93;;;2.77;;
2390;SDS011;22957;50.824;4.360;2023-05-29T05:55:07;7.83;;;2.23;;
2390;SDS011;22957;50.824;4.360;2023-05-29T05:57:33;8.60;;;2.40;;
2390;SDS011;22957;50.824;4.360;2023-05-29T06:00:00;7.47;;;2.10;;
2390;SDS011;22957;50.824;4.360;2023-05-29T06:02:32;7.53;;;1.77;;
2390;SDS011;22957;50.824;4.360;2023-05-29T06:04:58;11.90;;;2.50;;
2390;SDS011;22957;50.824;4.360;2023-05-29T06:07:24;11.73;;;2.47;;
2390;SDS011;22957;50.824;4.360;2023-05-29T06:09:50;10.20;;;1.83;;
2390;SDS011;22957;50.824;4.360;2023-05-29T06:12:15;14.70;;;2.67;;
2390;SDS011;22957;50.824;4.360;2023-05-29T06:14:41;17.60;;;3.10;;
2390;SDS011;22957;50.824;4.360;2023-05-29T06:17:06;13.37;;;2.90;;
2390;SDS011;22957;50.824;4.360;2023-05-29T06:19:32;7.27;;;2.60;;
2390;SDS011;22957;50.824;4.360;2023-05-29T06:21:58;10.13;;;2.40;;
2390;SDS011;22957;50.824;4.360;2023-05-29T06:24:23;12.30;;;2.70;;
2390;SDS011;22957;50.824;4.360;2023-05-29T06:26:49;15.10;;;3.47;;
2390;SDS011;22957;50.824;4.360;2023-05-29T06:29:15;13.20;;;2.90;;
2390;SDS011;22957;50.824;4.360;2023-05-29T06:31:40;18.80;;;2.33;;
2390;SDS011;22957;50.824;4.360;2023-05-29T06:34:06;9.70;;;1.97;;
2390;SDS011;22957;50.824;4.360;2023-05-29T06:36:32;16.23;;;2.73;;
2390;SDS011;22957;50.824;4.360;2023-05-29T06:38:57;10.53;;;2.00;;
2390;SDS011;22957;50.824;4.360;2023-05-29T06:41:23;14.93;;;3.17;;
2390;SDS011;22957;50.824;4.360;2023-05-29T06:43:48;15.67;;;3.30;;
2390;SDS011;22957;50.824;4.360;2023-05-29T06:46:14;6.27;;;2.10;;
2390;SDS011;22957;50.824;4.360;2023-05-29T06:48:40;11.50;;;2.50;;
2390;SDS011;22957;50.824;4.360;2023-05-29T06:51:06;19.57;;;2.80;;
2390;SDS011;22957;50.824;4.360;2023-05-29T06:53:36;20.13;;;2.27;;
2390;SDS011;22957;50.824;4.360;2023-05-29T06:56:05;12.67;;;2.27;;
2390;SDS011;22957;50.824;4.360;2023-05-29T06:58:31;9.97;;;1.90;;
2390;SDS011;22957;50.824;4.360;2023-05-29T07:01:06;14.53;;;1.90;;
2390;SDS011;22957;50.824;4.360;2023-05-29T07:03:32;9.33;;;2.07;;
2390;SDS011;22957;50.824;4.360;2023-05-29T07:05:58;16.97;;;2.33;;
2390;SDS011;22957;50.824;4.360;2023-05-29T07:08:24;11.20;;;1.93;;
2390;SDS011;22957;50.824;4.360;2023-05-29T07:10:50;11.67;;;2.40;;
2390;SDS011;22957;50.824;4.360;2023-05-29T07:13:15;17.17;;;2.90;;
2390;SDS011;22957;50.824;4.360;2023-05-29T07:15:42;10.37;;;2.30;;
2390;SDS011;22957;50.824;4.360;2023-05-29T07:18:08;6.20;;;1.60;;
2390;SDS011;22957;50.824;4.360;2023-05-29T07:20:35;12.83;;;2.67;;
2390;SDS011;22957;50.824;4.360;2023-05-29T07:23:01;12.87;;;2.50;;
2390;SDS011;22957;50.824;4.360;2023-05-29T07:25:27;8.47;;;2.20;;
2390;SDS011;22957;50.824;4.360;2023-05-29T07:27:53;14.60;;;2.43;;
2390;SDS011;22957;50.824;4.360;2023-05-29T07:30:18;8.60;;;2.03;;
2390;SDS011;22957;50.824;4.360;2023-05-29T07:32:44;15.13;;;2.67;;
2390;SDS011;22957;50.824;4.360;2023-05-29T07:35:10;8.83;;;1.90;;
2390;SDS011;22957;50.824;4.360;2023-05-29T07:37:36;14.23;;;2.67;;
2390;SDS011;22957;50.824;4.360;2023-05-29T07:40:02;14.50;;;3.10;;
2390;SDS011;22957;50.824;4.360;2023-05-29T07:42:30;7.13;;;1.87;;
2390;SDS011;22957;50.824;4.360;2023-05-29T07:44:57;11.67;;;2.53;;
2390;SDS011;22957;50.824;4.360;2023-05-29T07:47:23;15.10;;;3.00;;
2390;SDS011;22957;50.824;4.360;2023-05-29T07:49:48;11.57;;;3.20;;
2390;SDS011;22957;50.824;4.360;2023-05-29T07:52:14;14.10;;;3.13;;
2390;SDS011;22957;50.824;4.360;2023-05-29T07:54:40;9.00;;;2.37;;
2390;SDS011;22957;50.824;4.360;2023-05-29T07:57:05;10.73;;;2.60;;
2390;SDS011;22957;50.824;4.360;2023-05-29T07:59:37;9.50;;;2.30;;
2390;SDS011;22957;50.824;4.360;2023-05-29T08:02:06;6.53;;;1.80;;
2390;SDS011;22957;50.824;4.360;2023-05-29T08:04:32;14.00;;;2.80;;
2390;SDS011;22957;50.824;4.360;2023-05-29T08:06:58;10.23;;;1.97;;
2390;SDS011;22957;50.824;4.360;2023-05-29T08:09:25;11.60;;;1.93;;
2390;SDS011;22957;50.824;4.360;2023-05-29T08:11:50;8.33;;;2.50;;
2390;SDS011;22957;50.824;4.360;2023-05-29T08:14:16;11.20;;;2.20;;
2390;SDS011;22957;50.824;4.360;2023-05-29T08:16:42;9.03;;;2.93;;
2390;SDS011;22957;50.824;4.360;2023-05-29T08:19:07;10.63;;;2.00;;
2390;SDS011;22957;50.824;4.360;2023-05-29T08:21:33;11.60;;;2.73;;
2390;SDS011;22957;50.824;4.360;2023-05-29T08:23:59;11.07;;;2.43;;
2390;SDS011;22957;50.824;4.360;2023-05-29T08:26:25;15.27;;;2.70;;
2390;SDS011;22957;50.824;4.360;2023-05-29T08:28:51;16.47;;;2.63;;
2390;SDS011;22957;50.824;4.360;2023-05-29T08:31:17;9.00;;;1.80;;
2390;SDS011;22957;50.824;4.360;2023-05-29T08:33:42;12.50;;;2.20;;
2390;SDS011;22957;50.824;4.360;2023-05-29T08:36:08;9.70;;;2.40;;
2390;SDS011;22957;50.824;4.360;2023-05-29T08:38:34;11.97;;;2.53;;
2390;SDS011;22957;50.824;4.360;2023-05-29T08:41:00;11.33;;;2.70;;
2390;SDS011;22957;50.824;4.360;2023-05-29T08:43:30;14.00;;;3.40;;
2390;SDS011;22957;50.824;4.360;2023-05-29T08:45:59;12.40;;;3.13;;
2390;SDS011;22957;50.824;4.360;2023-05-29T08:48:26;14.33;;;2.80;;
2390;SDS011;22957;50.824;4.360;2023-05-29T08:50:54;7.77;;;2.37;;
2390;SDS011;22957;50.824;4.360;2023-05-29T08:53:21;8.03;;;2.00;;
2390;SDS011;22957;50.824;4.360;2023-05-29T08:55:47;13.90;;;2.57;;
2390;SDS011;22957;50.824;4.360;2023-05-29T08:58:16;14.27;;;2.10;;
2390;SDS011;22957;50.824;4.360;2023-05-29T09:00:43;12.53;;;2.80;;
2390;SDS011;22957;50.824;4.360;2023-05-29T09:03:11;13.30;;;2.10;;
2390;SDS011;22957;50.824;4.360;2023-05-29T09:05:38;13.70;;;3.03;;
2390;SDS011;22957;50.824;4.360;2023-05-29T09:08:05;10.40;;;2.10;;
2390;SDS011;22957;50.824;4.360;2023-05-29T09:10:32;18.33;;;2.43;;
2390;SDS011;22957;50.824;4.360;2023-05-29T09:12:58;14.97;;;3.00;;
2390;SDS011;22957;50.824;4.360;2023-05-29T09:15:24;11.07;;;2.67;;
2390;SDS011;22957;50.824;4.360;2023-05-29T09:17:56;7.83;;;2.10;;
2390;SDS011;22957;50.824;4.360;2023-05-29T09:20:23;21.77;;;3.17;;
2390;SDS011;22957;50.824;4.360;2023-05-29T09:22:59;10.50;;;2.07;;
2390;SDS011;22957;50.824;4.360;2023-05-29T09:25:28;9.53;;;2.37;;
2390;SDS011;22957;50.824;4.360;2023-05-29T09:27:58;7.27;;;1.87;;
2390;SDS011;22957;50.824;4.360;2023-05-29T09:30:46;6.23;;;2.03;;
2390;SDS011;22957;50.824;4.360;2023-05-29T09:33:12;11.37;;;2.93;;
2390;SDS011;22957;50.824;4.360;2023-05-29T09:35:43;18.13;;;3.07;;
2390;SDS011;22957;50.824;4.360;2023-05-29T09:38:16;11.67;;;3.47;;
2390;SDS011;22957;50.824;4.360;2023-05-29T09:40:43;16.37;;;2.87;;
2390;SDS011;22957;50.824;4.360;2023-05-29T09:43:12;21.03;;;2.73;;
2390;SDS011;22957;50.824;4.360;2023-05-29T09:45:42;13.90;;;2.10;;
2390;SDS011;22957;50.824;4.360;2023-05-29T09:48:13;10.07;;;2.37;;
2390;SDS011;22957;50.824;4.360;2023-05-29T09:50:40;11.53;;;2.83;;
2390;SDS011;22957;50.824;4.360;2023-05-29T09:55:47;10.50;;;1.97;;
2390;SDS011;22957;50.824;4.360;2023-05-29T09:58:15;11.03;;;2.90;;
2390;SDS011;22957;50.824;4.360;2023-05-29T10:00:42;12.20;;;2.50;;
2390;SDS011;22957;50.824;4.360;2023-05-29T10:03:08;14.00;;;2.30;;
2390;SDS011;22957;50.824;4.360;2023-05-29T10:05:36;11.60;;;2.60;;
2390;SDS011;22957;50.824;4.360;2023-05-29T10:08:02;15.73;;;2.97;;
2390;SDS011;22957;50.824;4.360;2023-05-29T10:10:31;18.70;;;2.43;;
2390;SDS011;22957;50.824;4.360;2023-05-29T10:12:59;19.10;;;2.43;;
2390;SDS011;22957;50.824;4.360;2023-05-29T10:15:28;11.77;;;2.83;;
2390;SDS011;22957;50.824;4.360;2023-05-29T10:18:02;10.87;;;3.00;;
2390;SDS011;22957;50.824;4.360;2023-05-29T10:20:29;11.80;;;2.27;;
2390;SDS011;22957;50.824;4.360;2023-05-29T10:22:56;9.20;;;2.23;;
2390;SDS011;22957;50.824;4.360;2023-05-29T10:25:25;10.33;;;2.50;;
2390;SDS011;22957;50.824;4.360;2023-05-29T10:27:55;9.83;;;2.30;;
2390;SDS011;22957;50.824;4.360;2023-05-29T10:35:55;9.30;;;1.97;;
2390;SDS011;22957;50.824;4.360;2023-05-29T10:38:59;15.03;;;2.93;;
2390;SDS011;22957;50.824;4.360;2023-05-29T10:43:56;10.17;;;2.50;;
2390;SDS011;22957;50.824;4.360;2023-05-29T10:49:19;19.23;;;2.83;;
2390;SDS011;22957;50.824;4.360;2023-05-29T10:51:47;16.43;;;2.93;;
2390;SDS011;22957;50.824;4.360;2023-05-29T10:54:13;15.50;;;3.33;;
2390;SDS011;22957;50.824;4.360;2023-05-29T10:56:41;14.13;;;2.23;;
2390;SDS011;22957;50.824;4.360;2023-05-29T10:59:10;10.27;;;2.30;;
2390;SDS011;22957;50.824;4.360;2023-05-29T11:01:38;11.87;;;3.10;;
2390;SDS011;22957;50.824;4.360;2023-05-29T11:06:51;10.90;;;3.03;;
2390;SDS011;22957;50.824;4.360;2023-05-29T11:09:33;11.57;;;2.10;;
2390;SDS011;22957;50.824;4.360;2023-05-29T11:14:47;15.23;;;2.87;;
2390;SDS011;22957;50.824;4.360;2023-05-29T11:17:31;9.17;;;2.40;;
2390;SDS011;22957;50.824;4.360;2023-05-29T11:20:03;11.37;;;2.40;;
2390;SDS011;22957;50.824;4.360;2023-05-29T11:22:34;7.13;;;1.90;;
2390;SDS011;22957;50.824;4.360;2023-05-29T11:25:23;9.73;;;2.30;;
2390;SDS011;22957;50.824;4.360;2023-05-29T11:27:49;11.00;;;2.93;;
2390;SDS011;22957;50.824;4.360;2023-05-29T11:30:17;14.67;;;3.43;;
2390;SDS011;22957;50.824;4.360;2023-05-29T11:32:43;8.80;;;2.20;;
2390;SDS011;22957;50.824;4.360;2023-05-29T11:35:11;5.90;;;1.60;;
2390;SDS011;22957;50.824;4.360;2023-05-29T11:37:39;10.10;;;2.27;;
2390;SDS011;22957;50.824;4.360;2023-05-29T11:40:08;9.80;;;2.30;;
2390;SDS011;22957;50.824;4.360;2023-05-29T11:42:34;6.43;;;1.70;;
2390;SDS011;22957;50.824;4.360;2023-05-29T11:45:10;9.33;;;2.30;;
2390;SDS011;22957;50.824;4.360;2023-05-29T11:48:18;9.13;;;2.03;;
2390;SDS011;22957;50.824;4.360;2023-05-29T11:50:30;14.53;;;2.40;;
2390;SDS011;22957;50.824;4.360;2023-05-29T11:52:57;13.03;;;2.67;;
2390;SDS011;22957;50.824;4.360;2023-05-29T11:55:24;11.33;;;2.97;;
2390;SDS011;22957;50.824;4.360;2023-05-29T11:57:51;12.07;;;2.20;;
2390;SDS011;22957;50.824;4.360;2023-05-29T12:00:24;9.80;;;2.20;;
2390;SDS011;22957;50.824;4.360;2023-05-29T12:02:51;7.53;;;1.70;;
2390;SDS011;22957;50.824;4.360;2023-05-29T12:05:17;11.97;;;2.73;;
2390;SDS011;22957;50.824;4.360;2023-05-29T12:07:51;11.50;;;2.73;;
2390;SDS011;22957;50.824;4.360;2023-05-29T12:10:18;10.67;;;2.57;;
2390;SDS011;22957;50.824;4.360;2023-05-29T12:12:49;10.07;;;1.60;;
2390;SDS011;22957;50.824;4.360;2023-05-29T12:15:18;8.83;;;2.23;;
2390;SDS011;22957;50.824;4.360;2023-05-29T12:17:44;9.03;;;2.30;;
2390;SDS011;22957;50.824;4.360;2023-05-29T12:20:11;9.70;;;2.30;;
2390;SDS011;22957;50.824;4.360;2023-05-29T12:22:39;12.63;;;2.70;;
2390;SDS011;22957;50.824;4.360;2023-05-29T12:27:42;8.23;;;2.07;;
2390;SDS011;22957;50.824;4.360;2023-05-29T12:30:12;10.40;;;2.37;;
2390;SDS011;22957;50.824;4.360;2023-05-29T12:32:40;7.93;;;2.30;;
2390;SDS011;22957;50.824;4.360;2023-05-29T12:35:20;5.13;;;1.60;;
2390;SDS011;22957;50.824;4.360;2023-05-29T12:38:06;12.77;;;2.80;;
2390;SDS011;22957;50.824;4.360;2023-05-29T12:40:33;11.60;;;2.60;;
2390;SDS011;22957;50.824;4.360;2023-05-29T12:43:00;9.37;;;2.03;;
2390;SDS011;22957;50.824;4.360;2023-05-29T12:45:28;14.33;;;2.57;;
2390;SDS011;22957;50.824;4.360;2023-05-29T12:47:59;7.40;;;2.10;;
2390;SDS011;22957;50.824;4.360;2023-05-29T12:52:59;8.37;;;1.87;;
2390;SDS011;22957;50.824;4.360;2023-05-29T12:55:25;8.80;;;1.90;;
2390;SDS011;22957;50.824;4.360;2023-05-29T12:57:53;7.30;;;2.23;;
2390;SDS011;22957;50.824;4.360;2023-05-29T13:00:19;8.40;;;2.57;;
2390;SDS011;22957;50.824;4.360;2023-05-29T13:02:46;6.00;;;2.00;;
2390;SDS011;22957;50.824;4.360;2023-05-29T13:05:13;6.27;;;1.60;;
2390;SDS011;22957;50.824;4.360;2023-05-29T13:07:40;6.60;;;2.17;;
2390;SDS011;22957;50.824;4.360;2023-05-29T13:10:06;8.23;;;2.60;;
2390;SDS011;22957;50.824;4.360;2023-05-29T13:12:32;12.83;;;2.63;;
2390;SDS011;22957;50.824;4.360;2023-05-29T13:14:59;8.23;;;2.20;;
2390;SDS011;22957;50.824;4.360;2023-05-29T13:17:24;8.33;;;3.00;;
2390;SDS011;22957;50.824;4.360;2023-05-29T13:19:50;10.17;;;2.40;;
2390;SDS011;22957;50.824;4.360;2023-05-29T13:22:15;9.80;;;2.70;;
2390;SDS011;22957;50.824;4.360;2023-05-29T13:24:41;8.10;;;2.90;;
2390;SDS011;22957;50.824;4.360;2023-05-29T13:27:07;8.93;;;2.57;;
2390;SDS011;22957;50.824;4.360;2023-05-29T13:29:33;4.90;;;2.20;;
2390;SDS011;22957;50.824;4.360;2023-05-29T13:31:59;9.90;;;2.33;;
2390;SDS011;22957;50.824;4.360;2023-05-29T13:34:25;9.80;;;2.30;;
2390;SDS011;22957;50.824;4.360;2023-05-29T13:36:54;5.93;;;1.43;;
2390;SDS011;22957;50.824;4.360;2023-05-29T13:39:20;11.50;;;2.77;;
2390;SDS011;22957;50.824;4.360;2023-05-29T13:41:45;6.80;;;2.50;;
2390;SDS011;22957;50.824;4.360;2023-05-29T13:44:11;10.10;;;2.40;;
2390;SDS011;22957;50.824;4.360;2023-05-29T13:46:37;13.00;;;3.00;;
2390;SDS011;22957;50.824;4.360;2023-05-29T13:49:02;5.93;;;2.30;;
2390;SDS011;22957;50.824;4.360;2023-05-29T13:51:28;10.33;;;2.23;;
2390;SDS011;22957;50.824;4.360;2023-05-29T13:53:53;11.47;;;2.17;;
2390;SDS011;22957;50.824;4.360;2023-05-29T13:56:19;7.13;;;2.00;;
2390;SDS011;22957;50.824;4.360;2023-05-29T13:58:44;7.57;;;1.80;;
2390;SDS011;22957;50.824;4.360;2023-05-29T14:01:10;5.53;;;1.83;;
2390;SDS011;22957;50.824;4.360;2023-05-29T14:03:36;10.03;;;2.87;;
2390;SDS011;22957;50.824;4.360;2023-05-29T14:06:01;8.17;;;2.70;;
2390;SDS011;22957;50.824;4.360;2023-05-29T14:08:30;6.90;;;1.67;;
2390;SDS011;22957;50.824;4.360;2023-05-29T14:10:55;9.70;;;2.53;;
2390;SDS011;22957;50.824;4.360;2023-05-29T14:13:21;9.33;;;2.43;;
2390;SDS011;22957;50.824;4.360;2023-05-29T14:15:46;8.87;;;2.30;;
2390;SDS011;22957;50.824;4.360;2023-05-29T14:18:14;12.60;;;2.43;;
2390;SDS011;22957;50.824;4.360;2023-05-29T14:20:40;6.30;;;2.30;;
2390;SDS011;22957;50.824;4.360;2023-05-29T14:23:06;11.17;;;2.27;;
2390;SDS011;22957;50.824;4.360;2023-05-29T14:25:34;10.63;;;2.17;;
2390;SDS011;22957;50.824;4.360;2023-05-29T14:27:59;8.53;;;2.83;;
2390;SDS011;22957;50.824;4.360;2023-05-29T14:30:25;8.60;;;2.50;;
2390;SDS011;22957;50.824;4.360;2023-05-29T14:32:50;7.40;;;2.70;;
2390;SDS011;22957;50.824;4.360;2023-05-29T14:35:16;9.00;;;1.97;;
2390;SDS011;22957;50.824;4.360;2023-05-29T14:37:42;8.60;;;2.30;;
2390;SDS011;22957;50.824;4.360;2023-05-29T14:40:07;6.67;;;1.90;;
2390;SDS011;22957;50.824;4.360;2023-05-29T14:42:34;10.80;;;3.30;;
2390;SDS011;22957;50.824;4.360;2023-05-29T14:44:59;7.20;;;2.13;;
2390;SDS011;22957;50.824;4.360;2023-05-29T14:47:25;6.10;;;1.87;;
2390;SDS011;22957;50.824;4.360;2023-05-29T14:49:51;11.70;;;1.93;;
2390;SDS011;22957;50.824;4.360;2023-05-29T14:52:16;8.87;;;2.77;;
2390;SDS011;22957;50.824;4.360;2023-05-29T14:54:42;5.43;;;1.97;;
2390;SDS011;22957;50.824;4.360;2023-05-29T14:57:07;11.53;;;1.97;;
2390;SDS011;22957;50.824;4.360;2023-05-29T14:59:33;11.90;;;2.37;;
2390;SDS011;22957;50.824;4.360;2023-05-29T15:01:58;12.27;;;2.80;;
2390;SDS011;22957;50.824;4.360;2023-05-29T15:04:25;8.27;;;2.40;;
2390;SDS011;22957;50.824;4.360;2023-05-29T15:06:50;9.23;;;2.57;;
2390;SDS011;22957;50.824;4.360;2023-05-29T15:09:16;11.63;;;2.53;;
2390;SDS011;22957;50.824;4.360;2023-05-29T15:11:42;8.50;;;2.07;;
2390;SDS011;22957;50.824;4.360;2023-05-29T15:14:08;8.03;;;1.77;;
2390;SDS011;22957;50.824;4.360;2023-05-29T15:16:33;7.30;;;1.80;;
2390;SDS011;22957;50.824;4.360;2023-05-29T15:19:00;12.00;;;2.70;;
2390;SDS011;22957;50.824;4.360;2023-05-29T15:21:25;6.83;;;2.30;;